sensor_id;sensor_type;location;lat;lon;timestamp;P1;durP1;ratioP1;P2;durP2;ratioP2
73693;SDS011;61997;53.974;11.670;2023-06-26T00:01:49;24.23;;;14.10;;
73693;SDS011;61997;53.974;11.670;2023-06-26T00:04:18;23.88;;;13.90;;
73693;SDS011;61997;53.974;11.670;2023-06-26T00:06:48;20.58;;;14.27;;
73693;SDS011;61997;53.974;11.670;2023-06-26T00:09:17;20.40;;;12.65;;
73693;SDS011;61997;53.974;11.670;2023-06-26T00:11:48;21.45;;;14.85;;
73693;SDS011;61997;53.974;11.670;2023-06-26T00:14:20;21.65;;;13.70;;
73693;SDS011;61997;53.974;11.670;2023-06-26T00:16:48;19.55;;;13.25;;
73693;SDS011;61997;53.974;11.670;2023-06-26T00:19:21;21.60;;;12.45;;
73693;SDS011;61997;53.974;11.670;2023-06-26T00:21:51;19.90;;;13.05;;
73693;SDS011;61997;53.974;11.670;2023-06-26T00:24:21;20.00;;;13.18;;
73693;SDS011;61997;53.974;11.670;2023-06-26T00:26:57;19.58;;;12.95;;
73693;SDS011;61997;53.974;11.670;2023-06-26T00:29:28;19.30;;;12.75;;
73693;SDS011;61997;53.974;11.670;2023-06-26T00:32:03;17.90;;;12.00;;
73693;SDS011;61997;53.974;11.670;2023-06-26T00:34:37;15.73;;;10.95;;
73693;SDS011;61997;53.974;11.670;2023-06-26T00:37:10;17.58;;;12.00;;
73693;SDS011;61997;53.974;11.670;2023-06-26T00:39:44;16.27;;;11.73;;
73693;SDS011;61997;53.974;11.670;2023-06-26T00:42:16;17.65;;;11.32;;
73693;SDS011;61997;53.974;11.670;2023-06-26T00:44:44;17.05;;;11.27;;
73693;SDS011;61997;53.974;11.670;2023-06-26T00:47:11;16.13;;;10.55;;
73693;SDS011;61997;53.974;11.670;2023-06-26T00:49:45;16.02;;;10.75;;
73693;SDS011;61997;53.974;11.670;2023-06-26T00:52:16;15.10;;;10.68;;
73693;SDS011;61997;53.974;11.670;2023-06-26T00:54:45;15.32;;;10.88;;
73693;SDS011;61997;53.974;11.670;2023-06-26T00:57:14;17.08;;;11.10;;
73693;SDS011;61997;53.974;11.670;2023-06-26T00:59:44;15.02;;;10.15;;
73693;SDS011;61997;53.974;11.670;2023-06-26T01:02:10;14.52;;;10.95;;
73693;SDS011;61997;53.974;11.670;2023-06-26T01:04:35;14.10;;;9.93;;
73693;SDS011;61997;53.974;11.670;2023-06-26T01:07:02;13.88;;;10.38;;
73693;SDS011;61997;53.974;11.670;2023-06-26T01:09:37;14.77;;;10.43;;
73693;SDS011;61997;53.974;11.670;2023-06-26T01:12:07;14.68;;;10.00;;
73693;SDS011;61997;53.974;11.670;2023-06-26T01:14:40;13.75;;;9.77;;
73693;SDS011;61997;53.974;11.670;2023-06-26T01:17:12;16.17;;;10.48;;
73693;SDS011;61997;53.974;11.670;2023-06-26T01:19:43;13.73;;;9.35;;
73693;SDS011;61997;53.974;11.670;2023-06-26T01:22:19;12.40;;;9.02;;
73693;SDS011;61997;53.974;11.670;2023-06-26T01:27:47;12.02;;;8.55;;
73693;SDS011;61997;53.974;11.670;2023-06-26T01:30:19;12.65;;;8.77;;
73693;SDS011;61997;53.974;11.670;2023-06-26T01:32:50;11.45;;;8.38;;
73693;SDS011;61997;53.974;11.670;2023-06-26T01:35:21;13.23;;;8.27;;
73693;SDS011;61997;53.974;11.670;2023-06-26T01:37:53;11.27;;;8.27;;
73693;SDS011;61997;53.974;11.670;2023-06-26T01:40:20;11.23;;;7.75;;
73693;SDS011;61997;53.974;11.670;2023-06-26T01:42:51;12.45;;;8.65;;
73693;SDS011;61997;53.974;11.670;2023-06-26T01:45:27;10.07;;;7.30;;
73693;SDS011;61997;53.974;11.670;2023-06-26T01:48:03;10.15;;;7.50;;
73693;SDS011;61997;53.974;11.670;2023-06-26T01:50:31;12.02;;;7.88;;
73693;SDS011;61997;53.974;11.670;2023-06-26T01:53:08;9.85;;;7.40;;
73693;SDS011;61997;53.974;11.670;2023-06-26T01:55:42;11.13;;;7.35;;
73693;SDS011;61997;53.974;11.670;2023-06-26T01:58:36;11.80;;;8.13;;
73693;SDS011;61997;53.974;11.670;2023-06-26T02:01:10;11.80;;;7.82;;
73693;SDS011;61997;53.974;11.670;2023-06-26T02:03:44;8.95;;;6.97;;
73693;SDS011;61997;53.974;11.670;2023-06-26T02:08:44;10.93;;;6.72;;
73693;SDS011;61997;53.974;11.670;2023-06-26T02:11:21;10.57;;;7.32;;
73693;SDS011;61997;53.974;11.670;2023-06-26T02:13:55;9.80;;;7.32;;
73693;SDS011;61997;53.974;11.670;2023-06-26T02:16:28;10.25;;;7.05;;
73693;SDS011;61997;53.974;11.670;2023-06-26T02:18:58;9.93;;;7.30;;
73693;SDS011;61997;53.974;11.670;2023-06-26T02:21:33;9.43;;;6.63;;
73693;SDS011;61997;53.974;11.670;2023-06-26T02:24:07;9.30;;;6.55;;
73693;SDS011;61997;53.974;11.670;2023-06-26T02:26:38;10.90;;;7.22;;
73693;SDS011;61997;53.974;11.670;2023-06-26T02:29:10;9.50;;;7.22;;
73693;SDS011;61997;53.974;11.670;2023-06-26T02:31:42;8.10;;;6.13;;
73693;SDS011;61997;53.974;11.670;2023-06-26T02:36:45;9.30;;;6.57;;
73693;SDS011;61997;53.974;11.670;2023-06-26T02:39:13;8.45;;;5.82;;
73693;SDS011;61997;53.974;11.670;2023-06-26T02:41:44;9.40;;;6.70;;
73693;SDS011;61997;53.974;11.670;2023-06-26T02:44:14;9.95;;;6.38;;
73693;SDS011;61997;53.974;11.670;2023-06-26T02:46:44;9.38;;;6.30;;
73693;SDS011;61997;53.974;11.670;2023-06-26T02:49:15;9.68;;;6.90;;
73693;SDS011;61997;53.974;11.670;2023-06-26T02:51:44;8.18;;;6.28;;
73693;SDS011;61997;53.974;11.670;2023-06-26T02:54:15;9.02;;;6.35;;
73693;SDS011;61997;53.974;11.670;2023-06-26T02:56:45;8.00;;;5.90;;
73693;SDS011;61997;53.974;11.670;2023-06-26T02:59:13;8.77;;;6.25;;
73693;SDS011;61997;53.974;11.670;2023-06-26T03:01:43;8.43;;;6.13;;
73693;SDS011;61997;53.974;11.670;2023-06-26T03:04:13;7.65;;;5.82;;
73693;SDS011;61997;53.974;11.670;2023-06-26T03:06:41;9.25;;;6.28;;
73693;SDS011;61997;53.974;11.670;2023-06-26T03:09:07;6.90;;;5.90;;
73693;SDS011;61997;53.974;11.670;2023-06-26T03:11:32;6.60;;;5.47;;
73693;SDS011;61997;53.974;11.670;2023-06-26T03:14:00;7.53;;;6.05;;
73693;SDS011;61997;53.974;11.670;2023-06-26T03:16:25;8.07;;;5.47;;
73693;SDS011;61997;53.974;11.670;2023-06-26T03:18:56;7.03;;;5.65;;
73693;SDS011;61997;53.974;11.670;2023-06-26T03:21:27;7.03;;;5.47;;
73693;SDS011;61997;53.974;11.670;2023-06-26T03:23:58;8.02;;;5.93;;
73693;SDS011;61997;53.974;11.670;2023-06-26T03:26:29;7.05;;;5.45;;
73693;SDS011;61997;53.974;11.670;2023-06-26T03:28:58;8.23;;;6.50;;
73693;SDS011;61997;53.974;11.670;2023-06-26T03:31:26;7.85;;;6.03;;
73693;SDS011;61997;53.974;11.670;2023-06-26T03:33:57;6.90;;;5.78;;
73693;SDS011;61997;53.974;11.670;2023-06-26T03:36:27;9.05;;;5.68;;
73693;SDS011;61997;53.974;11.670;2023-06-26T03:38:58;7.38;;;5.60;;
73693;SDS011;61997;53.974;11.670;2023-06-26T03:41:27;8.35;;;5.78;;
73693;SDS011;61997;53.974;11.670;2023-06-26T03:43:57;7.57;;;5.57;;
73693;SDS011;61997;53.974;11.670;2023-06-26T03:46:29;7.45;;;5.18;;
73693;SDS011;61997;53.974;11.670;2023-06-26T03:49:02;7.20;;;5.47;;
73693;SDS011;61997;53.974;11.670;2023-06-26T03:51:32;7.72;;;5.55;;
73693;SDS011;61997;53.974;11.670;2023-06-26T03:54:07;8.30;;;5.50;;
73693;SDS011;61997;53.974;11.670;2023-06-26T03:56:42;7.43;;;5.57;;
73693;SDS011;61997;53.974;11.670;2023-06-26T03:59:13;7.97;;;5.25;;
73693;SDS011;61997;53.974;11.670;2023-06-26T04:01:42;6.90;;;5.18;;
73693;SDS011;61997;53.974;11.670;2023-06-26T04:04:09;6.72;;;5.03;;
73693;SDS011;61997;53.974;11.670;2023-06-26T04:06:35;6.68;;;4.95;;
73693;SDS011;61997;53.974;11.670;2023-06-26T04:09:02;8.35;;;5.35;;
73693;SDS011;61997;53.974;11.670;2023-06-26T04:11:29;6.40;;;4.75;;
73693;SDS011;61997;53.974;11.670;2023-06-26T04:13:56;8.23;;;5.70;;
73693;SDS011;61997;53.974;11.670;2023-06-26T04:16:24;7.00;;;5.22;;
73693;SDS011;61997;53.974;11.670;2023-06-26T04:18:50;6.95;;;5.65;;
73693;SDS011;61997;53.974;11.670;2023-06-26T04:21:21;6.00;;;5.15;;
73693;SDS011;61997;53.974;11.670;2023-06-26T04:23:54;6.90;;;5.25;;
73693;SDS011;61997;53.974;11.670;2023-06-26T04:26:23;7.93;;;5.63;;
73693;SDS011;61997;53.974;11.670;2023-06-26T04:28:57;7.43;;;5.53;;
73693;SDS011;61997;53.974;11.670;2023-06-26T04:31:27;6.38;;;5.32;;
73693;SDS011;61997;53.974;11.670;2023-06-26T04:33:59;7.93;;;5.78;;
73693;SDS011;61997;53.974;11.670;2023-06-26T04:36:25;6.82;;;5.20;;
73693;SDS011;61997;53.974;11.670;2023-06-26T04:38:58;6.13;;;4.88;;
73693;SDS011;61997;53.974;11.670;2023-06-26T04:41:32;7.38;;;4.55;;
73693;SDS011;61997;53.974;11.670;2023-06-26T04:44:03;6.88;;;5.18;;
73693;SDS011;61997;53.974;11.670;2023-06-26T04:46:31;6.68;;;4.88;;
73693;SDS011;61997;53.974;11.670;2023-06-26T04:49:03;6.55;;;5.00;;
73693;SDS011;61997;53.974;11.670;2023-06-26T04:51:30;6.22;;;4.78;;
73693;SDS011;61997;53.974;11.670;2023-06-26T04:54:00;7.65;;;5.68;;
73693;SDS011;61997;53.974;11.670;2023-06-26T04:56:32;6.82;;;5.20;;
73693;SDS011;61997;53.974;11.670;2023-06-26T04:59:10;7.13;;;5.55;;
73693;SDS011;61997;53.974;11.670;2023-06-26T05:01:40;6.50;;;4.88;;
73693;SDS011;61997;53.974;11.670;2023-06-26T05:04:15;6.82;;;5.05;;
73693;SDS011;61997;53.974;11.670;2023-06-26T05:06:46;6.35;;;5.22;;
73693;SDS011;61997;53.974;11.670;2023-06-26T05:09:11;7.57;;;5.18;;
73693;SDS011;61997;53.974;11.670;2023-06-26T05:11:38;6.20;;;5.22;;
73693;SDS011;61997;53.974;11.670;2023-06-26T05:14:04;7.53;;;5.40;;
73693;SDS011;61997;53.974;11.670;2023-06-26T05:16:36;5.95;;;5.05;;
73693;SDS011;61997;53.974;11.670;2023-06-26T05:19:03;7.18;;;5.13;;
73693;SDS011;61997;53.974;11.670;2023-06-26T05:21:29;7.45;;;5.38;;
73693;SDS011;61997;53.974;11.670;2023-06-26T05:23:57;6.80;;;4.93;;
73693;SDS011;61997;53.974;11.670;2023-06-26T05:26:25;6.75;;;5.13;;
73693;SDS011;61997;53.974;11.670;2023-06-26T05:28:52;6.28;;;5.20;;
73693;SDS011;61997;53.974;11.670;2023-06-26T05:31:19;7.10;;;4.95;;
73693;SDS011;61997;53.974;11.670;2023-06-26T05:33:46;7.47;;;5.30;;
73693;SDS011;61997;53.974;11.670;2023-06-26T05:36:13;5.95;;;4.60;;
73693;SDS011;61997;53.974;11.670;2023-06-26T05:38:41;5.65;;;4.93;;
73693;SDS011;61997;53.974;11.670;2023-06-26T05:41:07;5.97;;;4.93;;
73693;SDS011;61997;53.974;11.670;2023-06-26T05:43:32;5.43;;;4.43;;
73693;SDS011;61997;53.974;11.670;2023-06-26T05:45:58;5.97;;;4.60;;
73693;SDS011;61997;53.974;11.670;2023-06-26T05:48:23;6.82;;;4.93;;
73693;SDS011;61997;53.974;11.670;2023-06-26T05:50:49;6.22;;;5.40;;
73693;SDS011;61997;53.974;11.670;2023-06-26T05:53:15;6.10;;;4.78;;
73693;SDS011;61997;53.974;11.670;2023-06-26T05:55:41;6.10;;;4.80;;
73693;SDS011;61997;53.974;11.670;2023-06-26T05:58:07;5.53;;;4.40;;
73693;SDS011;61997;53.974;11.670;2023-06-26T06:00:35;5.97;;;4.57;;
73693;SDS011;61997;53.974;11.670;2023-06-26T06:03:02;5.00;;;4.32;;
73693;SDS011;61997;53.974;11.670;2023-06-26T06:05:28;5.55;;;4.32;;
73693;SDS011;61997;53.974;11.670;2023-06-26T06:07:55;5.72;;;4.78;;
73693;SDS011;61997;53.974;11.670;2023-06-26T06:10:20;7.05;;;4.93;;
73693;SDS011;61997;53.974;11.670;2023-06-26T06:12:46;5.72;;;4.47;;
73693;SDS011;61997;53.974;11.670;2023-06-26T06:15:12;5.45;;;4.53;;
73693;SDS011;61997;53.974;11.670;2023-06-26T06:17:38;6.07;;;4.47;;
73693;SDS011;61997;53.974;11.670;2023-06-26T06:20:04;5.80;;;4.43;;
73693;SDS011;61997;53.974;11.670;2023-06-26T06:22:29;5.68;;;4.43;;
73693;SDS011;61997;53.974;11.670;2023-06-26T06:24:55;5.70;;;4.40;;
73693;SDS011;61997;53.974;11.670;2023-06-26T06:27:21;5.70;;;4.40;;
73693;SDS011;61997;53.974;11.670;2023-06-26T06:29:46;5.63;;;4.20;;
73693;SDS011;61997;53.974;11.670;2023-06-26T06:32:12;5.68;;;4.45;;
73693;SDS011;61997;53.974;11.670;2023-06-26T06:34:37;5.30;;;3.72;;
73693;SDS011;61997;53.974;11.670;2023-06-26T06:37:03;4.88;;;4.05;;
73693;SDS011;61997;53.974;11.670;2023-06-26T06:39:29;5.72;;;4.50;;
73693;SDS011;61997;53.974;11.670;2023-06-26T06:41:54;4.85;;;4.32;;
73693;SDS011;61997;53.974;11.670;2023-06-26T06:44:21;4.35;;;3.85;;
73693;SDS011;61997;53.974;11.670;2023-06-26T06:46:47;5.05;;;3.92;;
73693;SDS011;61997;53.974;11.670;2023-06-26T06:49:14;5.30;;;3.83;;
73693;SDS011;61997;53.974;11.670;2023-06-26T06:51:45;5.15;;;4.13;;
73693;SDS011;61997;53.974;11.670;2023-06-26T06:54:15;4.75;;;3.90;;
73693;SDS011;61997;53.974;11.670;2023-06-26T06:56:44;5.40;;;4.40;;
73693;SDS011;61997;53.974;11.670;2023-06-26T06:59:09;4.80;;;3.72;;
73693;SDS011;61997;53.974;11.670;2023-06-26T07:01:35;5.13;;;3.97;;
73693;SDS011;61997;53.974;11.670;2023-06-26T07:04:01;4.78;;;3.67;;
73693;SDS011;61997;53.974;11.670;2023-06-26T07:06:28;5.32;;;4.57;;
73693;SDS011;61997;53.974;11.670;2023-06-26T07:08:54;6.50;;;4.45;;
73693;SDS011;61997;53.974;11.670;2023-06-26T07:11:20;5.22;;;3.95;;
73693;SDS011;61997;53.974;11.670;2023-06-26T07:13:45;5.60;;;4.25;;
73693;SDS011;61997;53.974;11.670;2023-06-26T07:16:11;5.18;;;4.10;;
73693;SDS011;61997;53.974;11.670;2023-06-26T07:18:37;4.93;;;3.80;;
73693;SDS011;61997;53.974;11.670;2023-06-26T07:21:03;4.63;;;3.97;;
73693;SDS011;61997;53.974;11.670;2023-06-26T07:23:29;4.93;;;3.78;;
73693;SDS011;61997;53.974;11.670;2023-06-26T07:25:55;5.35;;;4.15;;
73693;SDS011;61997;53.974;11.670;2023-06-26T07:28:20;5.05;;;3.92;;
73693;SDS011;61997;53.974;11.670;2023-06-26T07:30:47;5.65;;;4.00;;
73693;SDS011;61997;53.974;11.670;2023-06-26T07:33:13;5.00;;;3.80;;
73693;SDS011;61997;53.974;11.670;2023-06-26T07:35:40;5.20;;;3.83;;
73693;SDS011;61997;53.974;11.670;2023-06-26T07:38:09;5.70;;;3.72;;
73693;SDS011;61997;53.974;11.670;2023-06-26T07:40:38;4.95;;;3.95;;
73693;SDS011;61997;53.974;11.670;2023-06-26T07:43:05;5.82;;;3.65;;
73693;SDS011;61997;53.974;11.670;2023-06-26T07:45:32;5.20;;;3.55;;
73693;SDS011;61997;53.974;11.670;2023-06-26T07:47:58;4.60;;;3.63;;
73693;SDS011;61997;53.974;11.670;2023-06-26T07:50:24;5.32;;;4.05;;
73693;SDS011;61997;53.974;11.670;2023-06-26T07:52:51;5.18;;;4.00;;
73693;SDS011;61997;53.974;11.670;2023-06-26T07:55:19;4.57;;;3.90;;
73693;SDS011;61997;53.974;11.670;2023-06-26T07:57:47;5.40;;;3.80;;
73693;SDS011;61997;53.974;11.670;2023-06-26T08:00:17;4.63;;;3.58;;
73693;SDS011;61997;53.974;11.670;2023-06-26T08:02:45;5.72;;;3.72;;
73693;SDS011;61997;53.974;11.670;2023-06-26T08:05:11;4.28;;;3.60;;
73693;SDS011;61997;53.974;11.670;2023-06-26T08:07:43;4.22;;;3.20;;
73693;SDS011;61997;53.974;11.670;2023-06-26T08:10:13;4.22;;;3.35;;
73693;SDS011;61997;53.974;11.670;2023-06-26T08:12:42;5.40;;;3.60;;
73693;SDS011;61997;53.974;11.670;2023-06-26T08:17:39;4.50;;;3.40;;
73693;SDS011;61997;53.974;11.670;2023-06-26T08:20:14;4.43;;;3.72;;
73693;SDS011;61997;53.974;11.670;2023-06-26T08:22:46;4.40;;;3.67;;
73693;SDS011;61997;53.974;11.670;2023-06-26T08:25:17;4.35;;;3.42;;
73693;SDS011;61997;53.974;11.670;2023-06-26T08:27:45;5.05;;;3.58;;
73693;SDS011;61997;53.974;11.670;2023-06-26T08:30:11;4.55;;;3.40;;
73693;SDS011;61997;53.974;11.670;2023-06-26T08:32:38;4.32;;;3.72;;
73693;SDS011;61997;53.974;11.670;2023-06-26T08:35:05;3.33;;;2.97;;
73693;SDS011;61997;53.974;11.670;2023-06-26T08:37:31;5.13;;;3.35;;
73693;SDS011;61997;53.974;11.670;2023-06-26T08:39:58;4.72;;;3.60;;
73693;SDS011;61997;53.974;11.670;2023-06-26T08:42:24;5.22;;;3.85;;
73693;SDS011;61997;53.974;11.670;2023-06-26T08:44:50;4.60;;;3.60;;
73693;SDS011;61997;53.974;11.670;2023-06-26T08:47:18;5.15;;;3.72;;
73693;SDS011;61997;53.974;11.670;2023-06-26T08:50:01;4.60;;;3.65;;
73693;SDS011;61997;53.974;11.670;2023-06-26T08:52:46;4.68;;;3.65;;
73693;SDS011;61997;53.974;11.670;2023-06-26T08:55:25;3.65;;;3.13;;
73693;SDS011;61997;53.974;11.670;2023-06-26T08:57:53;5.07;;;3.70;;
73693;SDS011;61997;53.974;11.670;2023-06-26T09:00:20;4.38;;;3.08;;
73693;SDS011;61997;53.974;11.670;2023-06-26T09:02:51;4.22;;;3.33;;
73693;SDS011;61997;53.974;11.670;2023-06-26T09:05:17;4.45;;;3.38;;
73693;SDS011;61997;53.974;11.670;2023-06-26T09:07:44;4.35;;;3.28;;
73693;SDS011;61997;53.974;11.670;2023-06-26T09:10:12;4.13;;;3.03;;
73693;SDS011;61997;53.974;11.670;2023-06-26T09:15:07;4.18;;;3.75;;
73693;SDS011;61997;53.974;11.670;2023-06-26T09:17:38;4.88;;;3.35;;
73693;SDS011;61997;53.974;11.670;2023-06-26T09:20:09;3.85;;;3.00;;
73693;SDS011;61997;53.974;11.670;2023-06-26T09:22:38;4.47;;;3.45;;
73693;SDS011;61997;53.974;11.670;2023-06-26T09:25:17;4.32;;;3.35;;
73693;SDS011;61997;53.974;11.670;2023-06-26T09:27:49;4.82;;;3.35;;
73693;SDS011;61997;53.974;11.670;2023-06-26T09:30:18;4.00;;;3.20;;
73693;SDS011;61997;53.974;11.670;2023-06-26T09:32:45;4.32;;;3.33;;
73693;SDS011;61997;53.974;11.670;2023-06-26T09:35:16;3.38;;;2.92;;
73693;SDS011;61997;53.974;11.670;2023-06-26T09:37:45;4.40;;;3.03;;
73693;SDS011;61997;53.974;11.670;2023-06-26T09:40:13;4.38;;;3.13;;
73693;SDS011;61997;53.974;11.670;2023-06-26T09:42:44;3.72;;;2.85;;
73693;SDS011;61997;53.974;11.670;2023-06-26T09:45:19;3.65;;;3.13;;
73693;SDS011;61997;53.974;11.670;2023-06-26T09:47:45;4.13;;;3.42;;
73693;SDS011;61997;53.974;11.670;2023-06-26T09:50:25;4.22;;;3.15;;
73693;SDS011;61997;53.974;11.670;2023-06-26T09:52:57;4.03;;;3.10;;
73693;SDS011;61997;53.974;11.670;2023-06-26T09:55:23;4.68;;;3.50;;
73693;SDS011;61997;53.974;11.670;2023-06-26T09:57:51;4.05;;;3.38;;
73693;SDS011;61997;53.974;11.670;2023-06-26T10:00:17;4.50;;;3.40;;
73693;SDS011;61997;53.974;11.670;2023-06-26T10:02:43;3.67;;;3.03;;
73693;SDS011;61997;53.974;11.670;2023-06-26T10:05:13;3.88;;;3.08;;
73693;SDS011;61997;53.974;11.670;2023-06-26T10:07:39;3.40;;;2.85;;
73693;SDS011;61997;53.974;11.670;2023-06-26T10:12:33;4.30;;;3.25;;
73693;SDS011;61997;53.974;11.670;2023-06-26T10:15:00;3.90;;;2.88;;
73693;SDS011;61997;53.974;11.670;2023-06-26T10:17:30;4.22;;;3.10;;
73693;SDS011;61997;53.974;11.670;2023-06-26T10:20:01;4.15;;;3.10;;
73693;SDS011;61997;53.974;11.670;2023-06-26T10:22:29;4.00;;;3.40;;
73693;SDS011;61997;53.974;11.670;2023-06-26T10:24:57;5.15;;;3.10;;
73693;SDS011;61997;53.974;11.670;2023-06-26T10:27:28;3.67;;;2.67;;
73693;SDS011;61997;53.974;11.670;2023-06-26T10:32:26;3.55;;;2.85;;
73693;SDS011;61997;53.974;11.670;2023-06-26T10:34:53;4.47;;;3.00;;
73693;SDS011;61997;53.974;11.670;2023-06-26T10:37:20;3.28;;;2.70;;
73693;SDS011;61997;53.974;11.670;2023-06-26T10:39:50;4.25;;;2.95;;
73693;SDS011;61997;53.974;11.670;2023-06-26T10:42:20;4.53;;;2.90;;
73693;SDS011;61997;53.974;11.670;2023-06-26T10:45:13;3.80;;;2.83;;
73693;SDS011;61997;53.974;11.670;2023-06-26T10:47:44;3.90;;;2.80;;
73693;SDS011;61997;53.974;11.670;2023-06-26T10:53:10;4.03;;;2.72;;
73693;SDS011;61997;53.974;11.670;2023-06-26T10:55:49;3.75;;;2.70;;
73693;SDS011;61997;53.974;11.670;2023-06-26T10:58:27;3.65;;;2.83;;
73693;SDS011;61997;53.974;11.670;2023-06-26T11:03:46;3.70;;;2.65;;
73693;SDS011;61997;53.974;11.670;2023-06-26T11:06:34;4.47;;;2.90;;
73693;SDS011;61997;53.974;11.670;2023-06-26T11:14:25;4.25;;;3.25;;
73693;SDS011;61997;53.974;11.670;2023-06-26T11:17:03;3.88;;;3.00;;
73693;SDS011;61997;53.974;11.670;2023-06-26T11:19:36;3.20;;;2.55;;
73693;SDS011;61997;53.974;11.670;2023-06-26T11:22:07;5.30;;;2.95;;
73693;SDS011;61997;53.974;11.670;2023-06-26T11:24:38;3.28;;;2.97;;
73693;SDS011;61997;53.974;11.670;2023-06-26T11:27:09;3.83;;;2.80;;
73693;SDS011;61997;53.974;11.670;2023-06-26T11:29:46;4.65;;;3.17;;
73693;SDS011;61997;53.974;11.670;2023-06-26T11:32:19;4.10;;;2.65;;
73693;SDS011;61997;53.974;11.670;2023-06-26T11:34:49;3.35;;;2.63;;
73693;SDS011;61997;53.974;11.670;2023-06-26T11:37:22;4.30;;;2.92;;
73693;SDS011;61997;53.974;11.670;2023-06-26T11:39:53;4.40;;;3.15;;
73693;SDS011;61997;53.974;11.670;2023-06-26T11:42:19;3.95;;;3.03;;
73693;SDS011;61997;53.974;11.670;2023-06-26T11:44:53;3.08;;;2.58;;
73693;SDS011;61997;53.974;11.670;2023-06-26T11:47:20;3.70;;;2.67;;
73693;SDS011;61997;53.974;11.670;2023-06-26T11:49:48;3.78;;;3.15;;
73693;SDS011;61997;53.974;11.670;2023-06-26T11:52:14;3.85;;;3.40;;
73693;SDS011;61997;53.974;11.670;2023-06-26T11:54:43;4.57;;;3.35;;
73693;SDS011;61997;53.974;11.670;2023-06-26T11:57:16;4.70;;;3.47;;
73693;SDS011;61997;53.974;11.670;2023-06-26T11:59:43;3.97;;;3.38;;
73693;SDS011;61997;53.974;11.670;2023-06-26T12:02:10;4.72;;;4.22;;
73693;SDS011;61997;53.974;11.670;2023-06-26T12:04:38;4.13;;;3.10;;
73693;SDS011;61997;53.974;11.670;2023-06-26T12:09:34;4.05;;;3.30;;
73693;SDS011;61997;53.974;11.670;2023-06-26T12:12:04;5.18;;;3.85;;
73693;SDS011;61997;53.974;11.670;2023-06-26T12:14:30;4.95;;;3.90;;
73693;SDS011;61997;53.974;11.670;2023-06-26T12:16:56;4.32;;;3.40;;
73693;SDS011;61997;53.974;11.670;2023-06-26T12:19:42;4.85;;;3.97;;
73693;SDS011;61997;53.974;11.670;2023-06-26T12:22:13;4.88;;;3.47;;
73693;SDS011;61997;53.974;11.670;2023-06-26T12:24:41;4.65;;;3.30;;
73693;SDS011;61997;53.974;11.670;2023-06-26T12:27:09;4.15;;;3.22;;
73693;SDS011;61997;53.974;11.670;2023-06-26T12:29:39;3.53;;;3.22;;
73693;SDS011;61997;53.974;11.670;2023-06-26T12:32:08;4.30;;;3.60;;
73693;SDS011;61997;53.974;11.670;2023-06-26T12:34:35;3.65;;;3.22;;
73693;SDS011;61997;53.974;11.670;2023-06-26T12:37:05;4.95;;;4.03;;
73693;SDS011;61997;53.974;11.670;2023-06-26T12:42:33;4.63;;;3.33;;
73693;SDS011;61997;53.974;11.670;2023-06-26T12:45:09;4.88;;;3.50;;
73693;SDS011;61997;53.974;11.670;2023-06-26T12:47:35;4.88;;;3.90;;
73693;SDS011;61997;53.974;11.670;2023-06-26T12:50:04;5.03;;;3.90;;
73693;SDS011;61997;53.974;11.670;2023-06-26T12:52:31;4.53;;;3.90;;
73693;SDS011;61997;53.974;11.670;2023-06-26T12:54:59;4.57;;;3.80;;
73693;SDS011;61997;53.974;11.670;2023-06-26T12:57:25;5.25;;;3.70;;
73693;SDS011;61997;53.974;11.670;2023-06-26T13:00:01;4.38;;;3.67;;
73693;SDS011;61997;53.974;11.670;2023-06-26T13:02:32;5.57;;;4.18;;
73693;SDS011;61997;53.974;11.670;2023-06-26T13:05:03;5.05;;;3.92;;
73693;SDS011;61997;53.974;11.670;2023-06-26T13:07:30;5.47;;;4.28;;
73693;SDS011;61997;53.974;11.670;2023-06-26T13:09:56;5.07;;;3.70;;
73693;SDS011;61997;53.974;11.670;2023-06-26T13:12:22;4.28;;;3.78;;
73693;SDS011;61997;53.974;11.670;2023-06-26T13:14:47;6.78;;;4.28;;
73693;SDS011;61997;53.974;11.670;2023-06-26T13:17:13;7.00;;;4.60;;
73693;SDS011;61997;53.974;11.670;2023-06-26T13:19:38;5.32;;;4.13;;
73693;SDS011;61997;53.974;11.670;2023-06-26T13:22:06;5.15;;;4.03;;
73693;SDS011;61997;53.974;11.670;2023-06-26T13:24:34;5.93;;;4.45;;
73693;SDS011;61997;53.974;11.670;2023-06-26T13:27:09;5.90;;;4.32;;
73693;SDS011;61997;53.974;11.670;2023-06-26T13:29:41;5.13;;;4.38;;
73693;SDS011;61997;53.974;11.670;2023-06-26T13:32:12;4.85;;;4.30;;
73693;SDS011;61997;53.974;11.670;2023-06-26T13:34:46;5.63;;;4.22;;
73693;SDS011;61997;53.974;11.670;2023-06-26T13:37:16;6.80;;;3.90;;
73693;SDS011;61997;53.974;11.670;2023-06-26T13:39:47;5.75;;;4.15;;
73693;SDS011;61997;53.974;11.670;2023-06-26T13:42:18;6.22;;;4.45;;
73693;SDS011;61997;53.974;11.670;2023-06-26T13:44:43;5.35;;;4.45;;
73693;SDS011;61997;53.974;11.670;2023-06-26T13:47:12;6.47;;;4.78;;
73693;SDS011;61997;53.974;11.670;2023-06-26T13:49:38;4.70;;;4.13;;
73693;SDS011;61997;53.974;11.670;2023-06-26T13:52:06;5.35;;;4.10;;
73693;SDS011;61997;53.974;11.670;2023-06-26T13:54:35;5.18;;;3.95;;
73693;SDS011;61997;53.974;11.670;2023-06-26T13:57:05;5.18;;;4.22;;
73693;SDS011;61997;53.974;11.670;2023-06-26T13:59:31;5.78;;;3.70;;
73693;SDS011;61997;53.974;11.670;2023-06-26T14:01:58;4.85;;;4.07;;
73693;SDS011;61997;53.974;11.670;2023-06-26T14:04:24;5.20;;;4.05;;
73693;SDS011;61997;53.974;11.670;2023-06-26T14:06:52;5.15;;;4.03;;
73693;SDS011;61997;53.974;11.670;2023-06-26T14:09:22;5.97;;;4.43;;
73693;SDS011;61997;53.974;11.670;2023-06-26T14:11:50;5.75;;;4.43;;
73693;SDS011;61997;53.974;11.670;2023-06-26T14:14:17;5.03;;;3.90;;
73693;SDS011;61997;53.974;11.670;2023-06-26T14:16:47;5.78;;;4.28;;
73693;SDS011;61997;53.974;11.670;2023-06-26T14:19:15;5.00;;;4.07;;
73693;SDS011;61997;53.974;11.670;2023-06-26T14:21:45;4.93;;;3.80;;
73693;SDS011;61997;53.974;11.670;2023-06-26T14:24:13;5.63;;;4.38;;
73693;SDS011;61997;53.974;11.670;2023-06-26T14:26:41;5.32;;;4.07;;
73693;SDS011;61997;53.974;11.670;2023-06-26T14:29:06;5.32;;;4.20;;
73693;SDS011;61997;53.974;11.670;2023-06-26T14:31:32;5.53;;;3.92;;
73693;SDS011;61997;53.974;11.670;2023-06-26T14:33:58;4.40;;;3.70;;
73693;SDS011;61997;53.974;11.670;2023-06-26T14:36:24;5.15;;;3.85;;
73693;SDS011;61997;53.974;11.670;2023-06-26T14:38:50;5.22;;;3.83;;
73693;SDS011;61997;53.974;11.670;2023-06-26T14:41:15;4.97;;;3.78;;
73693;SDS011;61997;53.974;11.670;2023-06-26T14:43:41;5.15;;;4.22;;
73693;SDS011;61997;53.974;11.670;2023-06-26T14:46:06;4.78;;;3.70;;
73693;SDS011;61997;53.974;11.670;2023-06-26T14:48:32;4.68;;;3.70;;
73693;SDS011;61997;53.974;11.670;2023-06-26T14:50:57;4.15;;;3.60;;
73693;SDS011;61997;53.974;11.670;2023-06-26T14:53:25;5.32;;;4.20;;
73693;SDS011;61997;53.974;11.670;2023-06-26T14:55:50;4.03;;;3.45;;
73693;SDS011;61997;53.974;11.670;2023-06-26T14:58:16;4.72;;;3.85;;
73693;SDS011;61997;53.974;11.670;2023-06-26T15:00:41;4.93;;;3.33;;
73693;SDS011;61997;53.974;11.670;2023-06-26T15:03:07;4.95;;;3.28;;
73693;SDS011;61997;53.974;11.670;2023-06-26T15:05:32;4.32;;;3.40;;
73693;SDS011;61997;53.974;11.670;2023-06-26T15:08:04;4.20;;;3.65;;
73693;SDS011;61997;53.974;11.670;2023-06-26T15:10:37;4.70;;;3.35;;
73693;SDS011;61997;53.974;11.670;2023-06-26T15:13:02;3.90;;;3.20;;
73693;SDS011;61997;53.974;11.670;2023-06-26T15:15:27;4.50;;;3.20;;
73693;SDS011;61997;53.974;11.670;2023-06-26T15:17:53;4.63;;;3.28;;